Peach Orchard, Georgia
Current Conditions -  °F | °C
As of 6:53 PM on Thursday 18 Dec 2014 (Local Time) from KAGS Reporting Station
Clear Clear  
Wind Chill: 46°   Ceiling: Unl
Heat Index: 46°   Visibility: 10mi
Dew Point: 38°   Wind: 3mph
Humidity: 73%   Direction: 340°NNW
Pressure: 30.09"   Gusts: NA
Location:  33.3495°N, 81.976°W
Report Text: KAGS 182353Z 34003KT 10SM CLR 08/03 A3009 RMK AO2 SLP189 T00780033 10167 20078 53006
Loading
Personal Weather Stations






























Interactive Weather Map New forecast layout! Learn more

10-Day Weather Forecast

Advertisements
Track Severe Weather on mobile